Time;durP1;ratioP1;P1;durP2;ratioP2;P2;SDS_P1;SDS_P2;PMS_P1;PMS_P2;Temp;Humidity;BMP_temperature;BMP_pressure;BME280_temperature;BME280_humidity;BME280_pressure;Samples;Min_cycle;Max_cycle;Signal;HPM_P1;HPM_P2
2022/06/12 00:01:00;;;;;;;2.13;1.92;;;;;;;15.56;64.07;96637.03;10330439;28;97186;-67
2022/06/12 00:06:05;;;;;;;3.58;1.52;;;;;;;15.40;64.40;96637.91;10328798;28;96952;-68
2022/06/12 00:11:11;;;;;;;3.33;2.08;;;;;;;15.32;64.39;96633.50;10331398;28;97039;-67
2022/06/12 00:16:15;;;;;;;4.47;1.70;;;;;;;15.27;64.43;96635.00;10330952;28;97210;-67
2022/06/12 00:21:20;;;;;;;3.43;1.67;;;;;;;15.17;64.67;96629.91;10328983;28;96955;-70
2022/06/12 00:26:26;;;;;;;1.52;1.27;;;;;;;15.07;64.82;96624.81;10327042;28;96881;-68
2022/06/12 00:31:31;;;;;;;3.35;1.23;;;;;;;15.06;64.65;96623.19;10326386;28;97245;-68
2022/06/12 00:36:36;;;;;;;1.63;1.17;;;;;;;14.90;64.06;96624.00;10324402;28;101577;-68
2022/06/12 00:41:41;;;;;;;5.13;1.23;;;;;;;14.86;62.86;96627.13;10325338;28;97312;-67
2022/06/12 00:46:49;;;;;;;1.70;1.20;;;;;;;14.92;62.28;96621.19;10323743;28;97630;-67
2022/06/12 00:51:58;;;;;;;2.38;1.02;;;;;;;14.97;62.33;96618.06;10320324;28;97175;-67
2022/06/12 00:57:03;;;;;;;2.28;1.05;;;;;;;14.91;62.14;96622.19;10324885;28;97001;-68
2022/06/12 01:02:09;;;;;;;2.53;1.20;;;;;;;14.83;62.63;96622.19;10326844;28;96761;-68
2022/06/12 01:07:17;;;;;;;2.13;1.40;;;;;;;14.73;62.66;96619.72;10322012;28;97093;-67
2022/06/12 01:12:24;;;;;;;3.80;1.30;;;;;;;14.60;63.67;96616.78;10322066;28;96948;-67
2022/06/12 01:17:29;;;;;;;2.03;1.27;;;;;;;14.45;64.18;96629.72;10326159;28;96759;-67
2022/06/12 01:22:58;;;;;;;2.97;1.00;;;;;;;14.36;63.22;96631.53;10328836;28;97283;-67
2022/06/12 01:28:17;;;;;;;1.90;0.93;;;;;;;14.34;63.49;96629.06;10325251;28;96941;-67
2022/06/12 01:33:28;;;;;;;3.13;0.98;;;;;;;14.25;63.20;96621.31;10322694;28;99818;-67
2022/06/12 01:38:38;;;;;;;1.52;1.10;;;;;;;14.14;63.51;96622.41;10324391;28;97222;-67
2022/06/12 01:43:47;;;;;;;3.38;1.20;;;;;;;14.00;63.50;96614.19;10330382;28;96920;-68
2022/06/12 01:48:59;;;;;;;1.60;1.10;;;;;;;13.97;63.55;96611.88;10347291;28;96843;-68
2022/06/12 01:54:07;;;;;;;3.35;1.25;;;;;;;13.88;64.17;96607.59;10327805;28;100073;-67
2022/06/12 01:59:16;;;;;;;1.65;1.10;;;;;;;13.93;64.13;96607.09;10351441;28;96731;-67
2022/06/12 02:04:27;;;;;;;2.03;1.15;;;;;;;13.97;63.59;96605.81;10339459;28;97125;-67
2022/06/12 02:09:33;;;;;;;2.60;1.23;;;;;;;13.96;64.16;96612.84;10338605;28;96886;-68
2022/06/12 02:14:43;;;;;;;1.40;1.05;;;;;;;13.89;64.72;96613.66;10322270;28;96879;-69
2022/06/12 02:19:48;;;;;;;2.75;1.02;;;;;;;13.82;65.31;96602.94;10342120;28;96835;-69
2022/06/12 02:24:54;;;;;;;1.77;1.30;;;;;;;13.58;66.22;96606.31;10338526;28;96976;-68
2022/06/12 02:30:01;;;;;;;5.57;1.50;;;;;;;13.52;66.53;96602.50;10335894;28;96961;-67
2022/06/12 02:35:11;;;;;;;2.75;1.27;;;;;;;13.44;66.21;96612.97;10333284;28;96943;-67
2022/06/12 02:40:19;;;;;;;1.70;1.20;;;;;;;13.47;66.37;96617.09;10338588;28;96945;-68
2022/06/12 02:45:28;;;;;;;2.70;1.25;;;;;;;13.42;66.31;96612.31;10337399;28;97046;-67
2022/06/12 02:50:36;;;;;;;3.67;1.35;;;;;;;13.09;67.36;96632.28;10336739;28;96870;-67
2022/06/12 02:55:44;;;;;;;2.40;1.40;;;;;;;12.85;67.82;96637.13;10340895;28;96959;-67
2022/06/12 03:00:52;;;;;;;3.67;1.88;;;;;;;12.73;68.28;96622.63;10338286;28;97059;-67
2022/06/12 03:05:59;;;;;;;5.18;1.73;;;;;;;12.71;68.45;96623.78;10335093;28;97110;-67
2022/06/12 03:11:08;;;;;;;3.25;1.60;;;;;;;12.64;68.85;96613.06;10333175;28;97004;-67
2022/06/12 03:16:15;;;;;;;5.80;1.60;;;;;;;12.60;68.46;96617.78;10337797;28;96769;-67
2022/06/12 03:21:39;;;;;;;4.40;1.48;;;;;;;12.78;67.71;96627.44;10335533;28;96965;-67
2022/06/12 03:26:54;;;;;;;2.13;1.23;;;;;;;12.81;67.62;96629.75;10334202;28;96978;-67
2022/06/12 03:32:06;;;;;;;2.87;1.30;;;;;;;12.88;66.91;96631.59;10340512;28;96917;-67
2022/06/12 03:37:17;;;;;;;2.97;1.30;;;;;;;12.83;67.68;96639.09;10336021;28;100305;-66
2022/06/12 03:42:29;;;;;;;3.20;1.40;;;;;;;12.74;67.15;96647.88;10330922;28;96928;-67
2022/06/12 03:47:37;;;;;;;2.95;1.50;;;;;;;12.78;66.81;96645.78;10335160;28;96792;-67
2022/06/12 03:52:45;;;;;;;2.85;1.30;;;;;;;12.81;67.13;96646.28;10339166;28;97404;-68
2022/06/12 03:57:56;;;;;;;2.63;1.50;;;;;;;12.78;67.55;96641.34;10336343;28;96699;-67
2022/06/12 04:03:03;;;;;;;4.00;1.27;;;;;;;12.82;67.20;96634.84;10332721;28;96925;-67
2022/06/12 04:08:14;;;;;;;2.80;1.30;;;;;;;12.84;68.15;96646.00;10338237;28;96782;-67
2022/06/12 04:13:19;;;;;;;3.78;1.55;;;;;;;12.84;68.71;96634.69;10335980;28;96824;-67
2022/06/12 04:18:22;;;;;;;1.67;1.30;;;;;;;12.99;67.88;96642.84;10332997;28;96973;-67
2022/06/12 04:23:36;;;;;;;2.53;1.60;;;;;;;12.98;68.55;96651.72;10335489;28;97033;-67
2022/06/12 04:28:43;;;;;;;1.63;1.27;;;;;;;13.02;68.35;96642.56;10337625;28;97049;-67
2022/06/12 04:34:13;;;;;;;3.30;1.60;;;;;;;13.15;68.29;96640.34;10335256;28;97794;-67
2022/06/12 04:39:20;;;;;;;5.40;1.60;;;;;;;13.14;67.71;96651.81;10332304;28;96977;-67
2022/06/12 04:44:24;;;;;;;3.25;1.52;;;;;;;13.18;67.96;96641.84;10335465;28;96913;-69
2022/06/12 04:49:31;;;;;;;3.17;1.42;;;;;;;13.10;68.92;96645.25;10334219;28;96816;-67
2022/06/12 04:54:36;;;;;;;3.35;1.80;;;;;;;13.00;69.71;96644.50;10331745;28;96799;-68
2022/06/12 04:59:40;;;;;;;3.13;1.55;;;;;;;12.92;69.62;96639.19;10332986;28;98365;-67
2022/06/12 05:04:43;;;;;;;5.90;1.60;;;;;;;12.99;69.48;96641.03;10335719;28;96934;-67
2022/06/12 05:09:47;;;;;;;3.45;1.70;;;;;;;13.13;69.28;96641.47;10332555;28;96736;-69
2022/06/12 05:14:50;;;;;;;3.00;1.50;;;;;;;13.28;68.48;96650.44;10330845;28;97030;-68
2022/06/12 05:19:53;;;;;;;2.28;1.75;;;;;;;13.48;67.80;96651.06;10336602;28;98732;-67
2022/06/12 05:24:58;;;;;;;4.45;1.63;;;;;;;13.76;67.72;96661.38;10333276;28;97835;-67
2022/06/12 05:30:01;;;;;;;5.53;1.70;;;;;;;14.06;66.85;96651.31;10329679;28;97010;-68
2022/06/12 05:35:04;;;;;;;3.83;2.28;;;;;;;14.31;65.94;96660.06;10343562;28;97262;-67
2022/06/12 05:40:14;;;;;;;4.07;1.45;;;;;;;14.53;65.81;96658.66;10339397;28;96858;-67
2022/06/12 05:45:19;;;;;;;4.28;1.70;;;;;;;14.67;65.38;96650.13;10340614;28;96886;-67
2022/06/12 05:50:26;;;;;;;2.03;1.67;;;;;;;14.99;64.96;96656.41;10340994;28;99197;-67
2022/06/12 05:55:32;;;;;;;1.60;1.35;;;;;;;15.25;64.33;96660.63;10338590;28;96837;-68
2022/06/12 06:00:35;;;;;;;3.05;1.50;;;;;;;15.53;63.29;96655.00;10340147;28;96878;-67
2022/06/12 06:05:38;;;;;;;2.58;1.58;;;;;;;15.71;63.21;96658.28;10338296;28;96988;-67
2022/06/12 06:10:43;;;;;;;2.50;1.42;;;;;;;15.94;61.52;96658.34;10339953;28;100487;-67
2022/06/12 06:15:47;;;;;;;2.47;1.33;;;;;;;16.27;60.87;96663.47;10339670;28;96741;-68
2022/06/12 06:20:50;;;;;;;1.67;1.27;;;;;;;16.58;59.84;96665.28;10337154;28;96712;-68
2022/06/12 06:25:55;;;;;;;1.77;1.17;;;;;;;16.87;59.25;96664.59;10341135;28;96879;-67
2022/06/12 06:30:58;;;;;;;1.92;1.20;;;;;;;17.21;58.85;96663.31;10339418;28;98577;-67
2022/06/12 06:36:01;;;;;;;3.25;1.55;;;;;;;17.37;58.11;96673.75;10335380;28;97260;-67
2022/06/12 06:41:06;;;;;;;2.22;1.45;;;;;;;17.51;58.03;96676.59;10340852;28;97334;-68
2022/06/12 06:46:15;;;;;;;2.53;1.33;;;;;;;17.56;57.72;96668.91;10338926;28;96651;-67
2022/06/12 06:51:18;;;;;;;2.25;1.30;;;;;;;17.69;56.44;96671.75;10336760;28;96927;-67
2022/06/12 06:56:23;;;;;;;1.58;1.20;;;;;;;17.82;56.31;96679.06;10338278;28;96880;-67
2022/06/12 07:01:25;;;;;;;2.20;1.30;;;;;;;17.94;55.58;96682.09;10339755;28;96834;-67
2022/06/12 07:06:29;;;;;;;1.77;1.20;;;;;;;18.02;54.46;96679.34;10337451;28;96681;-67
2022/06/12 07:11:34;;;;;;;3.72;1.20;;;;;;;18.13;54.28;96670.13;10335691;28;97611;-68
2022/06/12 07:16:39;;;;;;;1.88;1.25;;;;;;;18.25;53.95;96662.53;10337846;28;97075;-67
2022/06/12 07:21:42;;;;;;;3.05;1.23;;;;;;;18.44;53.50;96672.50;10337457;28;97124;-67
2022/06/12 07:26:48;;;;;;;2.10;1.30;;;;;;;18.50;53.75;96671.78;10334950;28;96846;-67
2022/06/12 07:31:51;;;;;;;3.25;1.30;;;;;;;18.68;53.10;96670.53;10339976;28;97217;-68
2022/06/12 07:36:55;;;;;;;2.75;1.25;;;;;;;18.81;52.51;96672.50;10336968;28;96945;-67
2022/06/12 07:42:00;;;;;;;2.75;1.50;;;;;;;18.90;52.84;96670.56;10331372;28;96904;-67
2022/06/12 07:47:05;;;;;;;1.42;1.20;;;;;;;19.10;51.91;96666.28;10332064;28;96923;-67
2022/06/12 07:52:10;;;;;;;2.08;1.00;;;;;;;19.23;51.88;96666.38;10336651;28;96752;-68
2022/06/12 07:57:14;;;;;;;1.85;1.20;;;;;;;19.34;50.94;96666.88;10335587;28;97337;-67
2022/06/12 08:02:17;;;;;;;2.55;1.00;;;;;;;19.44;49.82;96662.88;10337737;28;96936;-67
2022/06/12 08:07:20;;;;;;;3.05;1.30;;;;;;;19.62;50.32;96662.38;10335785;28;96942;-67
2022/06/12 08:12:24;;;;;;;1.80;1.15;;;;;;;19.77;49.41;96662.25;10335778;28;96968;-67
2022/06/12 08:17:27;;;;;;;2.83;1.25;;;;;;;19.86;49.10;96665.59;10336798;28;96870;-68
2022/06/12 08:22:30;;;;;;;2.05;1.20;;;;;;;19.99;48.72;96656.88;10335725;28;96779;-68
2022/06/12 08:27:34;;;;;;;2.63;1.30;;;;;;;20.11;48.30;96652.69;10335486;28;96710;-68
2022/06/12 08:32:38;;;;;;;2.10;1.13;;;;;;;20.24;48.74;96657.22;10328352;28;97877;-68
2022/06/12 08:37:42;;;;;;;3.37;1.30;;;;;;;20.40;47.78;96655.22;10334983;28;97023;-68
2022/06/12 08:42:55;;;;;;;3.00;1.57;;;;;;;20.54;48.01;96641.78;10335378;28;97113;-68
2022/06/12 08:48:06;;;;;;;2.47;1.27;;;;;;;20.80;47.96;96639.41;10326761;28;96944;-67
2022/06/12 08:53:16;;;;;;;1.55;1.30;;;;;;;20.93;47.22;96629.63;10336015;28;96698;-67
2022/06/12 08:58:28;;;;;;;2.55;1.10;;;;;;;21.07;46.97;96619.81;10334529;28;97090;-67
2022/06/12 09:03:36;;;;;;;2.50;1.58;;;;;;;21.20;47.12;96624.31;10329887;28;97144;-67
2022/06/12 09:08:47;;;;;;;2.38;1.40;;;;;;;21.25;47.20;96629.00;10313708;28;97467;-67
2022/06/12 09:13:58;;;;;;;2.88;1.60;;;;;;;21.49;46.69;96617.72;10336196;28;96832;-67
2022/06/12 09:19:07;;;;;;;3.00;1.33;;;;;;;21.61;46.83;96623.22;10332748;28;96972;-67
2022/06/12 09:24:22;;;;;;;2.20;1.17;;;;;;;21.70;46.45;96618.53;10330758;28;96788;-67
2022/06/12 09:29:36;;;;;;;2.05;1.65;;;;;;;21.81;46.33;96615.22;10333545;28;96857;-68
2022/06/12 09:34:46;;;;;;;4.20;2.47;;;;;;;21.90;45.86;96605.19;10333309;28;98692;-67
2022/06/12 09:39:58;;;;;;;2.90;1.50;;;;;;;22.06;46.04;96599.38;10332636;28;96740;-70
2022/06/12 09:45:11;;;;;;;1.50;1.27;;;;;;;22.22;45.65;96598.06;10326332;28;97048;-67
2022/06/12 09:50:33;;;;;;;1.67;1.38;;;;;;;22.23;45.46;96591.72;10327572;28;96791;-67
2022/06/12 09:55:41;;;;;;;1.67;1.20;;;;;;;22.47;44.92;96584.03;10333266;28;99899;-68
2022/06/12 10:00:50;;;;;;;1.80;1.42;;;;;;;22.61;44.04;96582.09;10332791;28;96998;-67
2022/06/12 10:05:58;;;;;;;1.35;1.05;;;;;;;22.71;43.61;96570.97;10328765;28;97106;-67
2022/06/12 10:11:08;;;;;;;2.05;1.30;;;;;;;22.85;43.43;96571.69;10328271;28;97827;-67
2022/06/12 10:16:19;;;;;;;1.98;1.20;;;;;;;23.07;42.32;96569.47;10331892;28;96777;-67
2022/06/12 10:21:48;;;;;;;2.33;1.40;;;;;;;23.19;42.67;96570.38;10338878;28;97043;-67
2022/06/12 10:26:58;;;;;;;2.25;1.25;;;;;;;23.30;42.50;96567.00;10336343;28;96771;-68
2022/06/12 10:32:05;;;;;;;3.10;1.20;;;;;;;23.41;42.68;96567.31;10342703;28;97503;-67
2022/06/12 10:37:11;;;;;;;1.63;1.20;;;;;;;23.44;42.40;96557.03;10338330;28;96800;-68
2022/06/12 10:42:37;;;;;;;1.60;1.30;;;;;;;23.55;42.30;96542.97;10335996;28;96844;-67
2022/06/12 10:47:46;;;;;;;3.22;1.63;;;;;;;23.79;41.88;96544.94;10331966;28;100994;-68
2022/06/12 10:53:01;;;;;;;2.33;1.35;;;;;;;23.91;42.05;96549.31;10336389;28;97354;-68
2022/06/12 10:58:19;;;;;;;2.45;1.23;;;;;;;24.26;41.63;96537.16;10338424;28;96928;-70
2022/06/12 11:03:35;;;;;;;1.38;1.27;;;;;;;24.29;42.10;96529.50;10336540;28;96966;-68
2022/06/12 11:09:11;;;;;;;3.72;1.33;;;;;;;24.46;42.22;96526.22;10319090;28;96960;-68
2022/06/12 11:14:29;;;;;;;1.92;1.20;;;;;;;24.59;41.53;96511.81;10329670;28;98267;-68
2022/06/12 11:19:55;;;;;;;1.90;1.17;;;;;;;24.73;42.74;96499.06;10336605;28;96898;-68
2022/06/12 11:25:09;;;;;;;1.60;1.20;;;;;;;24.83;41.42;96507.34;10336951;28;96973;-68
2022/06/12 11:30:31;;;;;;;2.55;1.20;;;;;;;24.88;40.50;96497.59;10333126;28;96883;-68
2022/06/12 11:35:46;;;;;;;1.30;1.20;;;;;;;24.94;39.90;96492.34;10319487;28;96949;-68
2022/06/12 11:40:56;;;;;;;3.08;1.73;;;;;;;25.13;40.02;96495.72;10338299;28;96757;-68
2022/06/12 11:46:12;;;;;;;2.75;1.60;;;;;;;25.31;39.62;96481.41;10336482;28;96949;-71
2022/06/12 11:51:28;;;;;;;1.30;1.17;;;;;;;25.60;39.22;96474.28;10334084;28;97902;-68
2022/06/12 11:56:41;;;;;;;1.77;1.17;;;;;;;25.80;38.81;96468.50;10335452;28;96819;-69
2022/06/12 12:01:53;;;;;;;1.73;1.10;;;;;;;26.00;38.31;96468.88;10338080;28;96965;-67
2022/06/12 12:07:17;;;;;;;2.17;1.70;;;;;;;26.19;37.83;96460.66;10336322;28;98608;-68
2022/06/12 12:12:23;;;;;;;1.73;1.10;;;;;;;26.31;37.90;96448.03;10335203;28;96895;-68
2022/06/12 12:17:30;;;;;;;2.78;1.67;;;;;;;26.52;37.39;96445.69;10335412;28;99151;-68
2022/06/12 12:22:41;;;;;;;1.40;1.23;;;;;;;26.68;36.57;96441.38;10335368;28;97185;-68
2022/06/12 12:27:48;;;;;;;1.48;1.10;;;;;;;26.81;35.98;96429.47;10335481;28;97158;-68
2022/06/12 12:32:55;;;;;;;1.20;0.95;;;;;;;26.90;35.71;96428.81;10332365;28;96773;-68
2022/06/12 12:43:20;;;;;;;2.00;1.30;;;;;;;27.27;35.93;96411.34;10334015;28;97062;-68
2022/06/12 12:48:23;;;;;;;1.60;0.90;;;;;;;27.42;35.78;96414.22;10333247;28;96928;-68
2022/06/12 12:53:30;;;;;;;1.63;1.10;;;;;;;27.57;35.21;96402.84;10333988;28;97063;-68
2022/06/12 12:58:36;;;;;;;2.63;1.33;;;;;;;27.55;35.53;96404.16;10336179;28;97044;-68
2022/06/12 13:03:45;;;;;;;1.42;1.00;;;;;;;27.75;35.25;96393.69;10334433;28;96916;-68
2022/06/12 13:09:05;;;;;;;1.15;0.90;;;;;;;28.19;33.99;96390.84;10330712;28;96755;-68
2022/06/12 13:14:28;;;;;;;1.52;0.82;;;;;;;28.23;33.97;96380.38;10329335;28;96749;-68
2022/06/12 13:19:51;;;;;;;2.33;1.25;;;;;;;28.13;33.90;96375.72;10334596;28;96775;-68
2022/06/12 13:25:01;;;;;;;1.75;1.00;;;;;;;28.19;33.58;96382.78;10333112;28;96769;-68
2022/06/12 13:30:20;;;;;;;1.25;1.00;;;;;;;28.49;33.34;96367.97;10329596;28;99920;-69
2022/06/12 13:35:29;;;;;;;1.95;1.00;;;;;;;28.69;33.07;96361.94;10331879;28;96939;-68
2022/06/12 13:40:37;;;;;;;0.82;0.80;;;;;;;28.93;32.76;96362.34;10324403;28;97993;-68
2022/06/12 13:45:54;;;;;;;1.00;0.90;;;;;;;29.39;32.38;96360.91;10331954;28;97084;-68
2022/06/12 13:51:16;;;;;;;1.80;1.00;;;;;;;29.82;31.88;96361.53;10329505;28;96986;-69
2022/06/12 13:56:21;;;;;;;1.30;0.90;;;;;;;30.33;30.53;96350.00;10341225;28;96900;-68
2022/06/12 14:01:27;;;;;;;1.60;1.10;;;;;;;31.05;30.47;96356.03;10339706;28;97020;-68
2022/06/12 14:06:33;;;;;;;1.48;1.00;;;;;;;31.57;29.45;96345.81;10339373;28;97121;-70
2022/06/12 14:11:39;;;;;;;1.35;1.08;;;;;;;32.09;28.64;96340.88;10329159;28;97560;-69
2022/06/12 14:16:47;;;;;;;1.02;0.90;;;;;;;33.25;27.98;96339.16;10340274;28;96961;-69
2022/06/12 14:22:00;;;;;;;1.58;0.90;;;;;;;34.98;26.14;96333.13;10340524;28;97082;-69
2022/06/12 14:27:21;;;;;;;1.10;0.90;;;;;;;36.41;25.11;96339.97;10334582;28;96958;-69
2022/06/12 14:32:25;;;;;;;2.22;0.60;;;;;;;38.13;24.06;96326.25;10339997;28;96918;-69
2022/06/12 14:37:37;;;;;;;2.10;0.65;;;;;;;39.15;22.68;96321.09;10337875;28;96744;-73
2022/06/12 14:42:51;;;;;;;1.15;0.80;;;;;;;39.86;22.53;96315.94;10338745;28;96898;-69
2022/06/12 14:47:54;;;;;;;1.15;0.82;;;;;;;38.99;23.38;96300.94;10336037;28;97043;-69
2022/06/12 14:52:57;;;;;;;0.77;0.70;;;;;;;39.94;22.29;96312.31;10341504;28;97038;-69
2022/06/12 14:58:01;;;;;;;0.90;0.80;;;;;;;40.50;21.41;96301.00;10338100;28;96856;-69
2022/06/12 15:03:09;;;;;;;1.50;0.70;;;;;;;40.44;22.11;96300.38;10333914;28;96988;-70
2022/06/12 15:08:12;;;;;;;1.60;0.70;;;;;;;39.92;22.45;96300.91;10339392;28;96747;-72
2022/06/12 15:13:20;;;;;;;1.65;0.75;;;;;;;39.16;23.25;96298.13;10338467;28;96721;-69
2022/06/12 15:18:23;;;;;;;2.10;0.73;;;;;;;38.81;22.67;96294.75;10336759;28;96993;-69
2022/06/12 15:23:26;;;;;;;1.50;0.82;;;;;;;38.53;22.98;96302.56;10337040;28;96905;-69
2022/06/12 15:33:51;;;;;;;2.42;0.98;;;;;;;35.55;24.66;96298.25;10337200;28;96779;-70
2022/06/12 15:38:54;;;;;;;2.50;0.80;;;;;;;34.51;26.03;96293.28;10333032;28;96873;-69
2022/06/12 15:43:59;;;;;;;1.17;0.68;;;;;;;33.01;26.99;96296.66;10340306;28;96946;-69
2022/06/12 15:49:02;;;;;;;0.82;0.70;;;;;;;31.81;28.20;96302.69;10337165;28;100040;-70
2022/06/12 15:54:05;;;;;;;0.77;0.50;;;;;;;30.95;29.05;96302.94;10331769;28;97133;-69
2022/06/12 15:59:10;;;;;;;1.70;0.75;;;;;;;30.24;29.58;96299.34;10339878;28;96746;-71
2022/06/12 16:04:14;;;;;;;5.18;0.80;;;;;;;29.88;30.04;96293.16;10337613;28;97064;-69
2022/06/12 16:09:18;;;;;;;1.30;0.60;;;;;;;29.73;30.18;96289.38;10334256;28;96916;-69
2022/06/12 16:14:22;;;;;;;1.38;0.90;;;;;;;29.93;29.98;96275.09;10334302;28;97750;-69
2022/06/12 16:19:25;;;;;;;0.95;0.65;;;;;;;29.97;29.92;96277.25;10335115;28;96948;-69
2022/06/12 16:24:28;;;;;;;1.58;0.80;;;;;;;30.08;29.92;96278.88;10333828;28;99521;-69
2022/06/12 16:29:33;;;;;;;2.08;0.73;;;;;;;30.39;29.87;96287.72;10335208;28;96752;-69
2022/06/12 16:34:37;;;;;;;2.20;0.82;;;;;;;30.56;29.49;96284.69;10332519;28;97008;-69
2022/06/12 16:39:41;;;;;;;1.00;0.75;;;;;;;31.51;29.14;96291.03;10334476;28;97909;-69
2022/06/12 16:44:45;;;;;;;1.55;0.80;;;;;;;32.22;28.86;96291.56;10333473;28;100180;-69
2022/06/12 16:49:48;;;;;;;1.38;0.50;;;;;;;32.50;26.21;96287.25;10336838;28;96786;-69
2022/06/12 16:54:55;;;;;;;0.88;0.55;;;;;;;33.48;25.07;96280.59;10334182;28;96734;-69
2022/06/12 17:00:00;;;;;;;0.98;0.55;;;;;;;34.13;23.87;96293.41;10330679;28;97157;-69
2022/06/12 17:05:06;;;;;;;1.20;0.63;;;;;;;33.99;23.92;96298.00;10328965;28;96950;-69
2022/06/12 17:10:12;;;;;;;0.73;0.38;;;;;;;33.17;24.09;96294.59;10332661;28;96777;-69
2022/06/12 17:15:18;;;;;;;1.50;0.70;;;;;;;32.31;25.37;96305.28;10331300;28;96744;-69
2022/06/12 17:25:43;;;;;;;1.10;0.68;;;;;;;30.88;26.90;96297.03;10336903;28;101655;-69
2022/06/12 17:30:57;;;;;;;1.55;0.68;;;;;;;30.45;27.29;96299.31;10334087;28;96764;-69
2022/06/12 17:36:00;;;;;;;0.90;0.60;;;;;;;30.13;27.74;96304.97;10329362;28;96987;-69
2022/06/12 17:41:03;;;;;;;1.10;0.80;;;;;;;29.83;28.34;96303.91;10327788;28;98606;-69
2022/06/12 17:46:08;;;;;;;2.58;0.80;;;;;;;29.43;28.57;96311.66;10334074;28;96839;-69
2022/06/12 17:51:15;;;;;;;0.70;0.63;;;;;;;29.20;29.08;96310.25;10330350;28;96785;-69
2022/06/12 17:56:19;;;;;;;0.60;0.60;;;;;;;28.89;29.90;96323.56;10330664;28;97053;-70
2022/06/12 18:01:23;;;;;;;4.35;1.20;;;;;;;28.73;29.77;96329.94;10332153;28;97128;-69
2022/06/12 18:06:27;;;;;;;1.33;0.80;;;;;;;28.64;29.85;96332.31;10331257;28;96949;-69
2022/06/12 18:11:30;;;;;;;1.30;0.70;;;;;;;28.51;29.99;96322.03;10331121;28;97061;-68
2022/06/12 18:21:56;;;;;;;1.55;0.90;;;;;;;28.02;30.82;96320.34;10332623;28;96757;-68
2022/06/12 18:26:59;;;;;;;2.67;0.77;;;;;;;27.90;30.71;96314.34;10326341;28;96976;-68
2022/06/12 18:32:04;;;;;;;1.00;0.83;;;;;;;27.63;30.87;96291.00;10332022;28;98005;-69
2022/06/12 18:37:07;;;;;;;1.52;0.90;;;;;;;27.49;30.84;96296.78;10333245;28;96826;-69
2022/06/12 18:42:10;;;;;;;1.60;0.80;;;;;;;27.41;30.56;96299.91;10336986;28;96746;-68
2022/06/12 18:47:14;;;;;;;1.73;0.70;;;;;;;27.31;30.42;96297.94;10340272;28;97190;-68
2022/06/12 18:52:18;;;;;;;1.80;0.88;;;;;;;27.12;30.88;96308.19;10333785;28;97482;-68
2022/06/12 18:57:21;;;;;;;1.65;0.90;;;;;;;26.94;31.50;96319.25;10332203;28;97087;-68
2022/06/12 19:02:27;;;;;;;0.93;0.83;;;;;;;26.74;32.03;96319.78;10338395;28;98961;-68
2022/06/12 19:07:30;;;;;;;1.40;0.90;;;;;;;26.75;32.48;96319.53;10332552;28;96828;-70
2022/06/12 19:12:34;;;;;;;1.83;0.90;;;;;;;26.78;32.39;96328.13;10326466;28;98517;-68
2022/06/12 19:17:55;;;;;;;1.50;1.00;;;;;;;26.84;32.23;96327.16;10317441;28;97368;-68
2022/06/12 19:23:00;;;;;;;1.23;0.82;;;;;;;26.73;32.44;96327.00;10339782;28;97223;-68
2022/06/12 19:28:05;;;;;;;2.03;0.75;;;;;;;26.45;33.07;96313.75;10334367;28;96982;-69
2022/06/12 19:33:09;;;;;;;1.48;0.63;;;;;;;26.23;34.17;96322.53;10333227;28;96725;-69
2022/06/12 19:38:13;;;;;;;3.03;1.02;;;;;;;25.88;35.02;96323.63;10338011;28;97139;-71
2022/06/12 19:43:16;;;;;;;2.47;0.90;;;;;;;25.72;36.12;96332.41;10336097;28;97066;-68
2022/06/12 19:48:21;;;;;;;1.43;0.90;;;;;;;25.51;36.34;96333.91;10334424;28;97163;-68
2022/06/12 19:53:24;;;;;;;2.22;1.13;;;;;;;25.36;36.55;96329.91;10335561;28;96910;-69
2022/06/12 19:58:27;;;;;;;2.37;0.93;;;;;;;25.24;36.61;96342.53;10336322;28;97446;-70
2022/06/12 20:03:31;;;;;;;1.25;0.90;;;;;;;24.94;37.23;96351.56;10332045;28;96742;-69
2022/06/12 20:08:34;;;;;;;1.75;1.00;;;;;;;24.68;37.87;96363.53;10334322;28;96857;-69
2022/06/12 20:13:37;;;;;;;2.17;1.00;;;;;;;24.41;38.32;96366.69;10337573;28;97485;-69
2022/06/12 20:18:41;;;;;;;2.03;1.00;;;;;;;24.21;39.39;96368.88;10340042;28;96836;-69
2022/06/12 20:23:44;;;;;;;2.47;0.90;;;;;;;24.08;39.72;96376.06;10347725;28;96926;-68
2022/06/12 20:28:47;;;;;;;1.83;1.10;;;;;;;23.90;40.20;96370.78;10332279;28;97817;-69
2022/06/12 20:33:51;;;;;;;1.50;1.08;;;;;;;23.80;40.27;96382.00;10334110;28;96754;-69
2022/06/12 20:38:54;;;;;;;0.82;0.70;;;;;;;23.66;40.67;96375.25;10321330;28;97398;-68
2022/06/12 20:43:57;;;;;;;1.40;0.93;;;;;;;23.52;40.56;96380.75;10337271;28;97967;-69
2022/06/12 20:49:01;;;;;;;1.50;0.90;;;;;;;23.43;41.14;96381.28;10334543;28;97671;-69
2022/06/12 20:54:04;;;;;;;0.98;0.88;;;;;;;23.33;41.27;96376.50;10331137;28;97045;-68
2022/06/12 20:59:07;;;;;;;1.67;1.30;;;;;;;23.31;40.85;96382.06;10334353;28;97316;-68
2022/06/12 21:04:12;;;;;;;2.55;1.00;;;;;;;23.35;40.78;96383.22;10333467;28;96913;-70
2022/06/12 21:09:15;;;;;;;18.90;14.70;;;;;;;23.44;40.60;96385.59;10331218;28;96791;-68
2022/06/12 21:14:18;;;;;;;3.30;1.10;;;;;;;23.45;40.99;96381.91;10334853;28;97365;-68
2022/06/12 21:19:23;;;;;;;1.37;1.00;;;;;;;23.34;42.04;96372.78;10333935;28;97040;-68
2022/06/12 21:24:25;;;;;;;;;;;;;;;23.13;41.65;96380.22;10325209;28;96970;-69
2022/06/12 21:29:29;;;;;;;1.95;1.10;;;;;;;22.96;43.03;96380.00;10334439;28;96838;-67
2022/06/12 21:34:33;;;;;;;1.17;1.00;;;;;;;22.91;43.68;96385.19;10332487;28;97063;-69
2022/06/12 21:39:36;;;;;;;2.95;1.20;;;;;;;22.89;43.71;96391.75;10334608;28;96926;-69
2022/06/12 21:44:39;;;;;;;1.60;0.98;;;;;;;22.89;44.47;96376.59;10331113;28;96892;-67
2022/06/12 21:49:43;;;;;;;1.45;0.90;;;;;;;22.82;44.63;96386.50;10335641;28;97136;-72
2022/06/12 21:54:46;;;;;;;;;;;;;;;22.84;43.95;96391.59;10327668;28;97103;-68
2022/06/12 21:59:50;;;;;;;1.30;1.02;;;;;;;22.78;44.56;96390.63;10328287;28;96876;-68
2022/06/12 22:04:54;;;;;;;1.70;1.10;;;;;;;22.73;45.13;96393.16;10329027;28;98150;-70
2022/06/12 22:09:57;;;;;;;;;;;;;;;22.57;44.69;96394.53;10331662;28;101387;-68
2022/06/12 22:15:00;;;;;;;1.13;1.00;;;;;;;22.48;45.21;96383.38;10329467;28;97287;-68
2022/06/12 22:20:05;;;;;;;2.05;1.20;;;;;;;22.44;46.14;96377.63;10342074;28;97042;-68
2022/06/12 22:25:09;;;;;;;2.13;0.98;;;;;;;22.14;47.18;96379.34;10337759;28;96936;-70
2022/06/12 22:30:13;;;;;;;4.90;1.67;;;;;;;22.06;47.18;96372.44;10335617;28;96998;-68
2022/06/12 22:35:18;;;;;;;3.08;1.10;;;;;;;21.99;47.46;96374.34;10340163;28;96861;-68
2022/06/12 22:40:21;;;;;;;;;;;;;;;21.97;46.44;96371.91;10338543;28;97003;-68
2022/06/12 22:45:24;;;;;;;4.32;1.13;;;;;;;21.77;47.28;96364.06;10337309;28;96987;-68
2022/06/12 22:50:28;;;;;;;2.13;1.27;;;;;;;21.69;47.91;96370.47;10339036;28;97082;-68
2022/06/12 22:55:32;;;;;;;1.77;1.10;;;;;;;21.46;48.96;96360.31;10337258;28;96747;-68
2022/06/12 23:00:35;;;;;;;;;;;;;;;21.38;48.06;96365.91;10338662;28;96812;-69
2022/06/12 23:05:40;;;;;;;2.63;1.42;;;;;;;21.53;48.04;96362.16;10319853;28;96894;-69
2022/06/12 23:10:43;;;;;;;1.98;0.93;;;;;;;21.58;47.90;96354.34;10340060;28;97901;-68
2022/06/12 23:15:46;;;;;;;2.97;1.20;;;;;;;21.40;48.95;96352.41;10337459;28;97133;-68
2022/06/12 23:21:10;;;;;;;2.40;1.05;;;;;;;21.03;50.56;96360.13;10337175;28;99531;-68
2022/06/12 23:26:16;;;;;;;2.60;1.33;;;;;;;20.79;51.22;96362.50;10336552;28;96816;-68
2022/06/12 23:31:22;;;;;;;2.83;1.40;;;;;;;20.69;51.00;96362.88;10337313;28;96988;-68
2022/06/12 23:36:28;;;;;;;3.70;1.30;;;;;;;20.62;51.59;96362.09;10334981;28;97670;-68
2022/06/12 23:41:31;;;;;;;2.17;1.27;;;;;;;20.59;51.20;96351.06;10337064;28;96873;-68
2022/06/12 23:46:36;;;;;;;1.58;1.38;;;;;;;20.55;51.83;96345.38;10336760;28;96890;-68
2022/06/12 23:51:41;;;;;;;1.92;1.35;;;;;;;20.33;53.10;96342.94;10337176;28;97570;-68
2022/06/12 23:56:44;;;;;;;1.90;1.50;;;;;;;20.03;53.86;96345.22;10334565;28;96961;-68
